createdAt,value
2018-02-23T00:01:43.617Z,17.10
2018-02-23T00:04:11.219Z,17.83
2018-02-23T00:06:38.787Z,17.77
2018-02-23T00:09:06.358Z,15.87
2018-02-23T00:11:34.711Z,16.40
2018-02-23T00:14:02.275Z,14.53
2018-02-23T00:16:29.871Z,15.10
2018-02-23T00:18:57.865Z,16.03
2018-02-23T00:21:25.430Z,14.73
2018-02-23T00:23:53.031Z,20.97
2018-02-23T00:26:20.599Z,12.53
2018-02-23T00:28:48.964Z,12.63
2018-02-23T00:31:16.778Z,15.33
2018-02-23T00:33:44.388Z,14.97
2018-02-23T00:36:12.919Z,17.20
2018-02-23T00:38:40.487Z,17.73
2018-02-23T00:41:08.122Z,14.50
2018-02-23T00:43:35.699Z,12.07
2018-02-23T00:46:03.343Z,16.00
2018-02-23T00:48:30.902Z,13.67
2018-02-23T00:50:58.600Z,17.60
2018-02-23T00:53:26.194Z,14.47
2018-02-23T00:55:53.767Z,19.30
2018-02-23T00:58:22.152Z,17.00
2018-02-23T01:00:49.945Z,14.23
2018-02-23T01:03:17.518Z,20.03
2018-02-23T01:05:45.147Z,16.67
2018-02-23T01:08:12.714Z,14.30
2018-02-23T01:10:40.366Z,16.60
2018-02-23T01:13:07.943Z,20.63
2018-02-23T01:15:35.587Z,16.40
2018-02-23T01:18:03.164Z,20.30
2018-02-23T01:20:30.810Z,18.70
2018-02-23T01:22:58.386Z,17.40
2018-02-23T01:25:26.048Z,17.03
2018-02-23T01:27:53.615Z,16.23
2018-02-23T01:30:21.218Z,17.53
2018-02-23T01:32:48.824Z,17.37
2018-02-23T01:35:16.435Z,17.53
2018-02-23T01:37:44.026Z,15.00
2018-02-23T01:40:11.819Z,19.00
2018-02-23T01:42:39.417Z,16.37
2018-02-23T01:45:07.231Z,15.70
2018-02-23T01:47:34.790Z,13.70
2018-02-23T01:50:02.426Z,14.70
2018-02-23T01:52:30.002Z,15.90
2018-02-23T01:54:57.647Z,15.40
2018-02-23T01:57:25.218Z,13.97
2018-02-23T01:59:52.879Z,12.77
2018-02-23T02:02:20.453Z,17.00
2018-02-23T02:04:48.092Z,12.93
2018-02-23T02:07:15.660Z,11.10
2018-02-23T02:09:43.336Z,17.87
2018-02-23T02:12:10.902Z,15.50
2018-02-23T02:14:39.467Z,14.73
2018-02-23T02:17:07.063Z,16.50
2018-02-23T02:19:34.653Z,13.60
2018-02-23T02:22:03.179Z,15.60
2018-02-23T02:24:31.749Z,13.43
2018-02-23T02:26:59.322Z,19.70
2018-02-23T02:29:26.948Z,16.50
2018-02-23T02:31:55.286Z,14.90
2018-02-23T02:34:23.142Z,17.67
2018-02-23T02:36:50.735Z,12.97
2018-02-23T02:39:19.288Z,19.90
2018-02-23T02:41:46.863Z,15.67
2018-02-23T02:44:14.434Z,18.17
2018-02-23T02:46:42.797Z,16.73
2018-02-23T02:49:10.612Z,15.83
2018-02-23T02:51:38.211Z,15.03
2018-02-23T02:54:05.791Z,13.37
2018-02-23T02:56:33.390Z,16.00
2018-02-23T02:59:01.003Z,19.17
2018-02-23T03:01:28.579Z,15.70
2018-02-23T03:03:56.939Z,23.20
2018-02-23T03:06:24.507Z,21.80
2018-02-23T03:08:53.053Z,22.10
2018-02-23T03:11:20.629Z,16.13
2018-02-23T03:13:48.262Z,16.00
2018-02-23T03:16:15.829Z,22.60
2018-02-23T03:18:43.432Z,16.70
2018-02-23T03:21:11.799Z,21.00
2018-02-23T03:23:39.610Z,14.10
2018-02-23T03:26:07.221Z,22.47
2018-02-23T03:28:34.794Z,19.53
2018-02-23T03:31:03.176Z,15.83
2018-02-23T03:33:31.580Z,16.80
2018-02-23T03:35:59.156Z,20.53
2018-02-23T03:38:26.819Z,19.20
2018-02-23T03:40:54.411Z,15.43
2018-02-23T03:43:21.996Z,20.00
2018-02-23T03:45:50.408Z,17.40
2018-02-23T03:48:18.200Z,17.40
2018-02-23T03:50:45.814Z,18.57
2018-02-23T03:53:13.388Z,19.80
2018-02-23T03:55:40.995Z,16.93
2018-02-23T03:58:08.575Z,18.20
2018-02-23T04:00:36.915Z,19.30
2018-02-23T04:03:04.775Z,23.97
2018-02-23T04:05:32.351Z,22.07
2018-02-23T04:07:59.970Z,19.30
2018-02-23T04:10:27.549Z,17.30
2018-02-23T04:12:55.150Z,17.10
2018-02-23T04:15:22.748Z,19.47
2018-02-23T04:17:50.362Z,16.13
2018-02-23T04:20:17.967Z,17.43
2018-02-23T04:22:45.601Z,19.43
2018-02-23T04:25:13.954Z,18.80
2018-02-23T04:27:42.657Z,20.80
2018-02-23T04:30:11.047Z,23.47
2018-02-23T04:32:39.413Z,18.60
2018-02-23T04:35:07.748Z,17.33
2018-02-23T04:37:35.352Z,19.57
2018-02-23T04:40:03.820Z,17.40
2018-02-23T04:42:31.422Z,19.50
2018-02-23T04:44:58.996Z,18.50
2018-02-23T04:47:26.609Z,23.77
2018-02-23T04:49:54.980Z,14.60
2018-02-23T04:52:22.787Z,21.50
2018-02-23T04:54:50.391Z,25.03
2018-02-23T04:57:17.979Z,19.87
2018-02-23T04:59:46.368Z,19.00
2018-02-23T05:02:14.110Z,19.77
2018-02-23T05:04:42.449Z,20.50
2018-02-23T05:07:10.046Z,23.07
2018-02-23T05:09:38.378Z,21.47
2018-02-23T05:12:06.156Z,21.57
2018-02-23T05:14:33.731Z,20.50
2018-02-23T05:17:01.412Z,22.97
2018-02-23T05:19:29.022Z,31.33
2018-02-23T05:21:56.627Z,24.40
2018-02-23T05:24:24.966Z,20.10
2018-02-23T05:26:52.729Z,17.37
2018-02-23T05:29:20.298Z,24.30
2018-02-23T05:31:47.918Z,18.40
2018-02-23T05:34:15.507Z,15.87
2018-02-23T05:36:43.095Z,16.40
2018-02-23T05:39:10.694Z,26.53
2018-02-23T05:41:38.336Z,23.90
2018-02-23T05:44:06.752Z,24.83
2018-02-23T05:46:34.511Z,15.87
2018-02-23T05:49:02.107Z,20.97
2018-02-23T05:51:29.907Z,27.33
2018-02-23T05:53:58.247Z,21.03
2018-02-23T05:56:25.950Z,22.70
2018-02-23T05:58:53.523Z,24.43
2018-02-23T06:01:21.096Z,27.07
2018-02-23T06:03:48.690Z,27.63
2018-02-23T06:06:16.271Z,25.33
2018-02-23T06:08:44.638Z,26.77
2018-02-23T06:11:12.468Z,26.40
2018-02-23T06:13:40.042Z,26.77
2018-02-23T06:16:13.283Z,26.83
2018-02-23T06:18:46.611Z,26.83
2018-02-23T06:21:14.244Z,27.10
2018-02-23T06:23:41.818Z,28.20
2018-02-23T06:26:09.471Z,27.33
2018-02-23T06:28:37.051Z,25.77
2018-02-23T06:31:04.738Z,23.70
2018-02-23T06:33:32.308Z,29.33
2018-02-23T06:35:59.880Z,33.77
2018-02-23T06:38:28.248Z,31.30
2018-02-23T06:40:56.059Z,28.60
2018-02-23T06:43:23.663Z,32.37
2018-02-23T06:45:51.237Z,33.93
2018-02-23T06:48:18.811Z,30.07
2018-02-23T06:50:47.180Z,31.40
2018-02-23T06:53:15.529Z,32.50
2018-02-23T06:55:43.295Z,39.33
2018-02-23T06:58:10.892Z,36.00
2018-02-23T07:00:38.500Z,34.20
2018-02-23T07:03:06.083Z,37.33
2018-02-23T07:05:33.688Z,36.00
2018-02-23T07:08:01.463Z,38.87
2018-02-23T07:10:29.228Z,41.27
2018-02-23T07:12:56.822Z,39.83
2018-02-23T07:15:24.408Z,39.03
2018-02-23T07:17:52.786Z,36.70
2018-02-23T07:20:21.158Z,36.57
2018-02-23T07:22:48.769Z,41.77
2018-02-23T07:25:16.386Z,35.37
2018-02-23T07:27:44.734Z,40.73
2018-02-23T07:30:12.603Z,43.70
2018-02-23T07:32:40.183Z,40.00
2018-02-23T07:35:08.692Z,39.60
2018-02-23T07:37:36.263Z,47.77
2018-02-23T07:40:04.221Z,40.70
2018-02-23T07:42:31.804Z,37.30
2018-02-23T07:44:59.469Z,41.87
2018-02-23T07:47:27.072Z,46.83
2018-02-23T07:49:55.609Z,43.83
2018-02-23T07:52:23.224Z,42.43
2018-02-23T07:54:51.704Z,40.57
2018-02-23T07:57:20.078Z,47.23
2018-02-23T07:59:48.449Z,41.77
2018-02-23T08:02:16.836Z,44.73
2018-02-23T08:04:45.205Z,50.27
2018-02-23T08:07:13.541Z,36.83
2018-02-23T08:09:41.173Z,35.10
2018-02-23T08:12:08.763Z,43.77
2018-02-23T08:14:36.384Z,49.33
2018-02-23T08:17:03.957Z,39.33
2018-02-23T08:19:31.568Z,40.03
2018-02-23T08:21:59.161Z,45.57
2018-02-23T08:24:27.694Z,63.73
2018-02-23T08:26:55.270Z,49.67
2018-02-23T08:29:22.853Z,56.57
2018-02-23T08:31:51.243Z,43.50
2018-02-23T08:34:19.049Z,44.60
2018-02-23T08:36:46.649Z,47.70
2018-02-23T08:39:15.135Z,52.23
2018-02-23T08:41:43.498Z,42.93
2018-02-23T08:44:12.242Z,49.77
2018-02-23T08:46:39.853Z,42.87
2018-02-23T08:49:08.374Z,56.23
2018-02-23T08:51:35.985Z,44.70
2018-02-23T08:54:03.558Z,44.27
2018-02-23T08:56:31.886Z,47.33
2018-02-23T08:58:59.496Z,43.70
2018-02-23T09:01:27.834Z,44.27
2018-02-23T09:03:55.608Z,45.37
2018-02-23T09:06:23.186Z,48.77
2018-02-23T09:08:51.732Z,46.90
2018-02-23T09:11:19.308Z,52.17
2018-02-23T09:13:47.016Z,47.93
2018-02-23T09:16:14.583Z,41.57
2018-02-23T09:18:42.197Z,47.33
2018-02-23T09:21:09.776Z,45.70
2018-02-23T09:23:37.354Z,38.03
2018-02-23T09:26:04.955Z,40.80
2018-02-23T09:28:32.559Z,39.43
2018-02-23T09:31:00.925Z,48.23
2018-02-23T09:33:40.585Z,44.70
2018-02-23T09:36:08.949Z,50.03
2018-02-23T09:38:37.493Z,47.47
2018-02-23T09:41:05.278Z,49.50
2018-02-23T09:43:33.006Z,43.00
2018-02-23T09:46:00.628Z,48.83
2018-02-23T09:48:29.134Z,46.07
2018-02-23T09:50:56.760Z,45.50
2018-02-23T09:53:25.239Z,43.27
2018-02-23T09:55:53.576Z,39.33
2018-02-23T09:58:21.193Z,44.30
2018-02-23T10:00:49.528Z,44.93
2018-02-23T10:03:17.293Z,46.17
2018-02-23T10:05:44.859Z,36.40
2018-02-23T10:08:12.443Z,41.87
2018-02-23T10:10:40.798Z,39.17
2018-02-23T10:13:08.666Z,45.50
2018-02-23T10:15:36.278Z,39.93
2018-02-23T10:18:03.846Z,66.53
2018-02-23T10:20:31.434Z,44.27
2018-02-23T10:22:59.003Z,34.00
2018-02-23T10:25:26.595Z,33.40
2018-02-23T10:27:54.244Z,39.47
2018-02-23T10:30:22.629Z,35.17
2018-02-23T10:32:51.430Z,31.47
2018-02-23T10:35:19.011Z,38.63
2018-02-23T10:37:46.937Z,35.93
2018-02-23T10:40:15.282Z,40.57
2018-02-23T10:42:43.055Z,37.60
2018-02-23T10:45:10.724Z,37.33
2018-02-23T10:47:38.628Z,35.10
2018-02-23T10:50:06.225Z,34.53
2018-02-23T10:52:34.030Z,33.10
2018-02-23T10:55:02.427Z,30.93
2018-02-23T10:57:30.230Z,34.50
2018-02-23T10:59:57.913Z,27.60
2018-02-23T11:02:25.769Z,29.77
2018-02-23T11:04:53.371Z,31.13
2018-02-23T11:07:22.245Z,32.63
2018-02-23T11:09:50.629Z,26.70
2018-02-23T11:12:18.986Z,26.67
2018-02-23T11:14:47.343Z,29.20
2018-02-23T11:17:15.207Z,33.37
2018-02-23T11:19:42.803Z,27.00
2018-02-23T11:22:11.213Z,28.03
2018-02-23T11:24:38.857Z,23.83
2018-02-23T11:27:07.240Z,27.77
2018-02-23T11:29:34.836Z,29.13
2018-02-23T11:32:02.647Z,30.87
2018-02-23T11:34:31.027Z,24.60
2018-02-23T11:36:59.421Z,23.60
2018-02-23T11:39:27.003Z,27.70
2018-02-23T11:41:54.593Z,29.83
2018-02-23T11:44:22.224Z,30.17
2018-02-23T11:46:49.814Z,19.97
2018-02-23T11:49:17.421Z,30.90
2018-02-23T11:51:45.057Z,22.60
2018-02-23T11:54:13.483Z,24.83
2018-02-23T11:56:41.112Z,21.60
2018-02-23T11:59:09.490Z,23.40
2018-02-23T12:01:37.881Z,21.73
2018-02-23T12:04:05.469Z,23.67
2018-02-23T12:06:33.201Z,21.33
2018-02-23T12:09:00.794Z,29.80
2018-02-23T12:11:28.428Z,22.77
2018-02-23T12:13:56.000Z,24.90
2018-02-23T12:16:23.587Z,24.97
2018-02-23T12:18:51.147Z,19.40
2018-02-23T12:21:18.804Z,21.43
2018-02-23T12:23:46.368Z,18.23
2018-02-23T12:26:14.007Z,22.83
2018-02-23T12:28:41.602Z,21.50
2018-02-23T12:31:09.166Z,18.10
2018-02-23T12:33:36.759Z,24.57
2018-02-23T12:36:06.414Z,20.00
2018-02-23T12:38:34.030Z,24.10
2018-02-23T12:41:01.758Z,23.80
2018-02-23T12:43:29.351Z,20.03
2018-02-23T12:45:56.980Z,21.00
2018-02-23T12:48:24.566Z,22.50
2018-02-23T12:50:52.240Z,26.03
2018-02-23T12:53:19.834Z,23.00
2018-02-23T12:55:48.395Z,20.80
2018-02-23T12:58:16.015Z,25.27
2018-02-23T13:00:43.591Z,25.07
2018-02-23T13:03:11.174Z,34.13
2018-02-23T13:05:38.830Z,82.33
2018-02-23T13:08:06.496Z,102.47
2018-02-23T13:10:34.123Z,275.70
2018-02-23T13:13:01.697Z,57.77
2018-02-23T13:15:29.285Z,31.43
2018-02-23T13:17:56.863Z,27.80
2018-02-23T13:20:24.462Z,26.70
2018-02-23T13:22:52.808Z,28.73
2018-02-23T13:25:20.673Z,25.10
2018-02-23T13:27:53.968Z,28.07
2018-02-23T13:30:21.709Z,25.10
2018-02-23T13:32:49.279Z,27.20
2018-02-23T13:35:16.918Z,24.20
2018-02-23T13:37:44.491Z,29.03
2018-02-23T13:40:12.098Z,27.20
2018-02-23T13:42:40.931Z,21.43
2018-02-23T13:45:08.537Z,25.80
2018-02-23T13:47:36.899Z,26.50
2018-02-23T13:50:04.773Z,26.63
2018-02-23T13:52:33.173Z,24.90
2018-02-23T13:55:00.827Z,22.50
2018-02-23T13:57:28.462Z,24.20
2018-02-23T13:59:56.039Z,30.33
2018-02-23T14:02:24.408Z,45.23
2018-02-23T14:04:52.227Z,62.07
2018-02-23T14:07:25.528Z,28.50
2018-02-23T14:09:53.288Z,25.20
2018-02-23T14:12:20.888Z,31.50
2018-02-23T14:14:48.466Z,25.07
2018-02-23T14:17:16.811Z,45.13
2018-02-23T14:19:44.669Z,23.77
2018-02-23T14:22:12.239Z,32.37
2018-02-23T14:24:39.844Z,39.07
2018-02-23T14:27:07.436Z,26.57
2018-02-23T14:29:36.958Z,24.17
2018-02-23T14:32:04.683Z,24.13
2018-02-23T14:34:32.483Z,29.00
2018-02-23T14:37:00.079Z,36.90
2018-02-23T14:39:28.598Z,64.33
2018-02-23T14:41:56.204Z,35.50
2018-02-23T14:44:23.784Z,37.43
2018-02-23T14:46:52.151Z,32.47
2018-02-23T14:49:20.524Z,24.40
2018-02-23T14:51:48.888Z,29.10
2018-02-23T14:54:16.722Z,30.80
2018-02-23T14:56:45.095Z,30.47
2018-02-23T14:59:12.812Z,45.90
2018-02-23T15:01:41.184Z,40.03
2018-02-23T15:04:09.731Z,39.00
2018-02-23T15:06:37.340Z,30.70
2018-02-23T15:09:05.696Z,28.67
2018-02-23T15:11:33.272Z,26.97
2018-02-23T15:14:01.645Z,32.57
2018-02-23T15:16:29.983Z,68.53
2018-02-23T15:18:58.187Z,47.80
2018-02-23T15:21:26.526Z,33.53
2018-02-23T15:23:54.177Z,35.00
2018-02-23T15:26:21.764Z,30.30
2018-02-23T15:28:49.384Z,42.27
2018-02-23T15:31:29.071Z,30.37
2018-02-23T15:33:56.684Z,33.40
2018-02-23T15:36:24.314Z,30.00
2018-02-23T15:38:52.660Z,36.63
2018-02-23T15:41:21.160Z,52.20
2018-02-23T15:43:48.733Z,47.40
2018-02-23T15:46:17.274Z,30.00
2018-02-23T15:48:50.282Z,29.40
2018-02-23T15:51:21.695Z,25.13
2018-02-23T15:53:49.269Z,24.10
2018-02-23T15:56:16.890Z,23.10
2018-02-23T15:58:45.369Z,24.10
2018-02-23T16:01:13.181Z,25.63
2018-02-23T16:03:40.776Z,28.67
2018-02-23T16:06:09.295Z,24.37
2018-02-23T16:08:36.874Z,23.90
2018-02-23T16:11:04.494Z,27.40
2018-02-23T16:13:32.073Z,25.60
2018-02-23T16:15:59.671Z,33.17
2018-02-23T16:18:27.256Z,23.27
2018-02-23T16:20:55.780Z,26.53
2018-02-23T16:23:23.422Z,34.13
2018-02-23T16:25:51.001Z,25.50
2018-02-23T16:28:18.599Z,27.13
2018-02-23T16:30:46.172Z,19.47
2018-02-23T16:33:14.540Z,27.80
2018-02-23T16:35:42.362Z,26.43
2018-02-23T16:38:10.005Z,26.13
2018-02-23T16:40:38.464Z,28.37
2018-02-23T16:43:06.895Z,28.60
2018-02-23T16:45:34.652Z,21.70
2018-02-23T16:48:02.336Z,22.00
2018-02-23T16:50:30.185Z,24.30
2018-02-23T16:52:57.801Z,26.07
2018-02-23T16:55:26.309Z,26.40
2018-02-23T16:57:53.899Z,28.50
2018-02-23T17:00:21.482Z,25.40
2018-02-23T17:02:49.092Z,22.80
2018-02-23T17:05:16.708Z,31.90
2018-02-23T17:07:45.059Z,27.53
2018-02-23T17:10:14.415Z,26.63
2018-02-23T17:12:42.006Z,26.10
2018-02-23T17:15:09.635Z,29.87
2018-02-23T17:17:37.204Z,33.17
2018-02-23T17:20:05.020Z,28.37
2018-02-23T17:22:33.384Z,28.80
2018-02-23T17:25:00.990Z,27.70
2018-02-23T17:27:28.587Z,21.53
2018-02-23T17:29:56.214Z,21.30
2018-02-23T17:32:23.813Z,28.63
2018-02-23T17:34:51.455Z,23.80
2018-02-23T17:37:19.040Z,20.80
2018-02-23T17:39:46.659Z,26.57
2018-02-23T17:42:14.263Z,21.70
2018-02-23T17:44:41.860Z,24.73
2018-02-23T17:47:10.253Z,26.30
2018-02-23T17:49:38.039Z,24.57
2018-02-23T17:52:05.645Z,23.30
2018-02-23T17:54:33.216Z,24.33
2018-02-23T17:57:01.867Z,27.27
2018-02-23T17:59:29.705Z,27.70
2018-02-23T18:01:57.282Z,24.50
2018-02-23T18:04:24.935Z,31.73
2018-02-23T18:06:52.529Z,36.13
2018-02-23T18:09:20.152Z,39.33
2018-02-23T18:11:47.720Z,27.33
2018-02-23T18:14:15.349Z,28.90
2018-02-23T18:16:42.931Z,29.93
2018-02-23T18:19:10.539Z,32.73
2018-02-23T18:21:38.914Z,34.00
2018-02-23T18:24:07.334Z,22.87
2018-02-23T18:26:34.938Z,30.93
2018-02-23T18:29:02.509Z,24.23
2018-02-23T18:31:30.892Z,35.87
2018-02-23T18:33:59.294Z,34.77
2018-02-23T18:36:26.936Z,31.53
2018-02-23T18:38:55.483Z,35.77
2018-02-23T18:41:23.078Z,33.30
2018-02-23T18:43:51.581Z,30.33
2018-02-23T18:46:19.168Z,27.10
2018-02-23T18:48:46.798Z,33.07
2018-02-23T18:51:14.390Z,28.57
2018-02-23T18:53:42.023Z,29.00
2018-02-23T18:56:09.637Z,30.17
2018-02-23T18:58:37.278Z,25.97
2018-02-23T19:01:04.908Z,29.10
2018-02-23T19:03:32.541Z,31.20
2018-02-23T19:06:00.117Z,33.27
2018-02-23T19:08:27.702Z,40.40
2018-02-23T19:10:55.305Z,36.10
2018-02-23T19:13:22.889Z,37.00
2018-02-23T19:15:50.521Z,35.43
2018-02-23T19:18:18.110Z,29.20
2018-02-23T19:20:45.699Z,44.00
2018-02-23T19:23:13.338Z,38.60
2018-02-23T19:25:40.906Z,26.73
2018-02-23T19:28:08.585Z,25.13
2018-02-23T19:30:36.184Z,24.60
2018-02-23T19:33:03.809Z,26.57
2018-02-23T19:35:31.409Z,34.60
2018-02-23T19:37:59.942Z,26.93
2018-02-23T19:40:27.561Z,22.20
2018-02-23T19:42:56.092Z,24.40
2018-02-23T19:45:23.703Z,20.43
2018-02-23T19:47:52.258Z,22.93
2018-02-23T19:50:19.875Z,25.70
2018-02-23T19:52:47.452Z,24.97
2018-02-23T19:55:15.059Z,27.10
2018-02-23T19:57:43.559Z,22.90
2018-02-23T20:00:11.144Z,17.57
2018-02-23T20:02:38.789Z,24.63
2018-02-23T20:05:06.527Z,17.50
2018-02-23T20:07:34.938Z,23.00
2018-02-23T20:10:02.539Z,20.00
2018-02-23T20:12:30.152Z,19.80
2018-02-23T20:14:57.739Z,19.13
2018-02-23T20:17:25.336Z,29.90
2018-02-23T20:19:53.721Z,26.60
2018-02-23T20:22:22.097Z,19.20
2018-02-23T20:24:50.474Z,22.03
2018-02-23T20:27:18.851Z,22.43
2018-02-23T20:29:47.248Z,20.80
2018-02-23T20:32:15.042Z,31.10
2018-02-23T20:34:42.641Z,29.10
2018-02-23T20:37:10.253Z,20.60
2018-02-23T20:39:37.835Z,24.07
2018-02-23T20:42:05.471Z,17.57
2018-02-23T20:44:33.109Z,19.43
2018-02-23T20:47:00.721Z,21.93
2018-02-23T20:49:28.328Z,29.90
2018-02-23T20:51:56.928Z,16.47
2018-02-23T20:54:24.520Z,16.70
2018-02-23T20:56:53.958Z,29.50
2018-02-23T20:59:22.314Z,58.23
2018-02-23T21:01:50.084Z,72.17
2018-02-23T21:04:17.665Z,50.10
2018-02-23T21:06:46.219Z,36.17
2018-02-23T21:09:13.819Z,35.20
2018-02-23T21:11:41.440Z,40.50
2018-02-23T21:14:09.053Z,39.37
2018-02-23T21:16:36.651Z,24.67
2018-02-23T21:19:04.268Z,20.90
2018-02-23T21:21:31.843Z,16.60
2018-02-23T21:23:59.447Z,27.07
2018-02-23T21:26:27.055Z,32.30
2018-02-23T21:28:54.634Z,49.77
2018-02-23T21:31:22.279Z,27.00
2018-02-23T21:33:49.848Z,21.67
2018-02-23T21:36:17.515Z,18.17
2018-02-23T21:38:45.091Z,22.10
2018-02-23T21:41:12.707Z,26.50
2018-02-23T21:43:40.284Z,31.43
2018-02-23T21:46:07.923Z,46.97
2018-02-23T21:48:35.544Z,34.20
2018-02-23T21:51:03.127Z,37.80
2018-02-23T21:53:31.496Z,34.20
2018-02-23T21:55:59.879Z,38.77
2018-02-23T21:58:28.252Z,31.10
2018-02-23T22:00:56.657Z,25.87
2018-02-23T22:03:24.238Z,27.17
2018-02-23T22:05:51.871Z,20.77
2018-02-23T22:08:19.468Z,22.40
2018-02-23T22:10:47.125Z,28.50
2018-02-23T22:13:14.738Z,28.80
2018-02-23T22:15:43.292Z,20.63
2018-02-23T22:18:10.914Z,17.80
2018-02-23T22:20:38.499Z,22.10
2018-02-23T22:23:06.126Z,17.57
2018-02-23T22:25:33.706Z,18.67
2018-02-23T22:28:02.184Z,29.03
2018-02-23T22:30:29.804Z,17.77
2018-02-23T22:32:58.203Z,20.43
2018-02-23T22:35:26.004Z,16.80
2018-02-23T22:37:53.606Z,25.50
2018-02-23T22:40:22.175Z,16.40
2018-02-23T22:42:50.541Z,14.97
2018-02-23T22:45:18.296Z,19.87
2018-02-23T22:47:45.874Z,21.90
2018-02-23T22:50:14.445Z,20.23
2018-02-23T22:52:42.030Z,20.13
2018-02-23T22:55:10.581Z,24.67
2018-02-23T22:57:38.171Z,20.33
2018-02-23T23:00:05.808Z,27.60
2018-02-23T23:02:33.400Z,25.47
2018-02-23T23:05:01.014Z,21.60
2018-02-23T23:07:28.605Z,21.87
2018-02-23T23:09:57.155Z,16.57
2018-02-23T23:12:24.743Z,17.67
2018-02-23T23:14:53.315Z,17.60
2018-02-23T23:17:21.685Z,15.63
2018-02-23T23:19:49.441Z,22.07
2018-02-23T23:22:17.050Z,17.90
2018-02-23T23:24:44.634Z,17.73
2018-02-23T23:27:12.254Z,21.23
2018-02-23T23:29:40.739Z,19.80
2018-02-23T23:32:09.092Z,21.87
2018-02-23T23:34:36.939Z,24.23
2018-02-23T23:37:04.722Z,30.13
2018-02-23T23:39:32.463Z,39.43
2018-02-23T23:42:00.064Z,25.57
2018-02-23T23:44:27.829Z,25.17
2018-02-23T23:46:56.189Z,21.33
2018-02-23T23:49:24.699Z,27.37
2018-02-23T23:51:52.321Z,23.40
2018-02-23T23:54:19.931Z,32.90
2018-02-23T23:56:47.546Z,26.97
2018-02-23T23:59:15.143Z,21.73
